Time;durP1;ratioP1;P1;durP2;ratioP2;P2;SDS_P1;SDS_P2;PMS_P1;PMS_P2;Temp;Humidity;BMP_temperature;BMP_pressure;BME280_temperature;BME280_humidity;BME280_pressure;Samples;Min_cycle;Max_cycle;Signal;HPM_P1;HPM_P2
2022/11/22 00:01:44;;;;;;;10.23;9.83;;;;;;;4.02;100.00;92247.59;5116873;28;20246;-70
2022/11/22 00:04:09;;;;;;;11.27;10.67;;;;;;;4.12;100.00;92247.66;5113071;28;20631;-69
2022/11/22 00:06:34;;;;;;;10.93;10.23;;;;;;;4.11;100.00;92229.84;5112516;28;20234;-69
2022/11/22 00:09:00;;;;;;;11.07;10.47;;;;;;;4.06;100.00;92240.88;5112866;28;20208;-69
2022/11/22 00:11:25;;;;;;;11.73;11.10;;;;;;;4.02;100.00;92245.00;5096881;28;20239;-70
2022/11/22 00:13:50;;;;;;;11.77;11.17;;;;;;;4.03;100.00;92243.97;5092398;28;20215;-69
2022/11/22 00:16:16;;;;;;;11.20;10.60;;;;;;;3.75;100.00;92221.03;5107908;28;20235;-69
2022/11/22 00:18:41;;;;;;;12.63;11.93;;;;;;;3.90;100.00;92233.28;5096677;28;20254;-69
2022/11/22 00:21:07;;;;;;;11.50;10.90;;;;;;;3.87;100.00;92260.38;5125082;28;20215;-69
2022/11/22 00:23:33;;;;;;;11.40;10.70;;;;;;;3.90;100.00;92244.41;5129659;27;20180;-70
2022/11/22 00:25:58;;;;;;;12.20;11.50;;;;;;;4.03;100.00;92263.88;5107861;28;20234;-69
2022/11/22 00:28:23;;;;;;;10.60;10.07;;;;;;;4.19;100.00;92257.75;5097971;28;20173;-70
2022/11/22 00:30:49;;;;;;;11.47;10.80;;;;;;;4.18;100.00;92257.00;5103409;28;20223;-70
2022/11/22 00:33:14;;;;;;;12.07;11.27;;;;;;;4.17;100.00;92250.25;5109133;28;20207;-69
2022/11/22 00:35:39;;;;;;;11.37;10.67;;;;;;;4.12;100.00;92252.84;5104670;28;20292;-70
2022/11/22 00:38:05;;;;;;;12.97;12.07;;;;;;;4.12;100.00;92262.38;5087774;28;20180;-70
2022/11/22 00:40:30;;;;;;;11.80;11.20;;;;;;;3.90;100.00;92228.13;5101690;28;20257;-69
2022/11/22 00:42:55;;;;;;;11.07;10.47;;;;;;;4.23;100.00;92259.63;5131129;28;20260;-70
2022/11/22 00:45:21;;;;;;;12.67;11.83;;;;;;;4.16;100.00;92253.09;5123434;28;20845;-69
2022/11/22 00:47:46;;;;;;;12.17;11.47;;;;;;;3.93;100.00;92256.03;5102807;28;20194;-69
2022/11/22 00:50:11;;;;;;;11.40;10.70;;;;;;;3.93;100.00;92261.97;5114989;27;20228;-70
2022/11/22 00:52:37;;;;;;;11.87;11.17;;;;;;;3.80;100.00;92259.81;5097140;28;20184;-69
2022/11/22 00:55:02;;;;;;;11.50;10.90;;;;;;;3.85;100.00;92233.25;5101305;28;20236;-70
2022/11/22 00:57:28;;;;;;;12.03;11.23;;;;;;;3.74;100.00;92249.66;5123060;28;20188;-69
2022/11/22 00:59:53;;;;;;;12.00;11.30;;;;;;;3.84;100.00;92250.56;5123208;28;20223;-70
2022/11/22 01:02:18;;;;;;;11.33;10.70;;;;;;;3.81;100.00;92239.94;5106525;28;20219;-69
2022/11/22 01:04:44;;;;;;;12.47;11.67;;;;;;;3.69;100.00;92247.84;5112243;27;20214;-69
2022/11/22 01:07:09;;;;;;;12.23;11.53;;;;;;;3.74;100.00;92245.28;5111896;28;20187;-70
2022/11/22 01:09:34;;;;;;;11.53;10.83;;;;;;;3.65;100.00;92246.00;5116261;28;20187;-67
2022/11/22 01:12:00;;;;;;;11.70;10.93;;;;;;;3.61;100.00;92232.78;5125601;28;20187;-69
2022/11/22 01:14:25;;;;;;;12.60;11.70;;;;;;;3.65;100.00;92241.63;5156379;27;20183;-69
2022/11/22 01:16:51;;;;;;;11.87;11.17;;;;;;;3.48;100.00;92240.94;5091622;28;20280;-69
2022/11/22 01:19:16;;;;;;;12.57;11.87;;;;;;;3.61;100.00;92250.09;5091104;28;20246;-69
2022/11/22 01:21:41;;;;;;;12.20;11.60;;;;;;;3.43;100.00;92227.22;5109212;28;20464;-69
2022/11/22 01:24:07;;;;;;;11.27;10.63;;;;;;;3.68;100.00;92256.59;5115749;28;20209;-70
2022/11/22 01:26:33;;;;;;;11.57;10.97;;;;;;;3.64;100.00;92250.41;5117761;28;20223;-69
2022/11/22 01:28:59;;;;;;;11.03;10.53;;;;;;;3.50;100.00;92244.06;5115186;28;20179;-69
2022/11/22 01:31:24;;;;;;;11.17;10.67;;;;;;;3.52;100.00;92238.66;5113136;27;20227;-69
2022/11/22 01:33:49;;;;;;;10.70;10.20;;;;;;;3.44;100.00;92241.69;5094982;28;20188;-69
2022/11/22 01:36:15;;;;;;;11.87;11.27;;;;;;;3.54;100.00;92250.28;5107570;28;20246;-69
2022/11/22 01:38:40;;;;;;;10.73;10.13;;;;;;;3.49;100.00;92245.06;5100418;28;20177;-69
2022/11/22 01:41:05;;;;;;;11.03;10.43;;;;;;;3.37;100.00;92247.03;5097210;28;20300;-69
2022/11/22 01:43:31;;;;;;;11.03;10.43;;;;;;;3.47;100.00;92244.53;5082480;28;20192;-69
2022/11/22 01:46:01;;;;;;;12.80;12.00;;;;;;;3.34;100.00;92242.38;5120692;28;20265;-69
2022/11/22 01:48:49;;;;;;;11.50;10.80;;;;;;;3.23;100.00;92236.34;5110933;27;20168;-69
2022/11/22 01:51:15;;;;;;;10.63;10.13;;;;;;;3.36;100.00;92237.75;5102799;27;20224;-69
2022/11/22 01:53:41;;;;;;;10.93;10.13;;;;;;;3.17;100.00;92242.47;5084010;28;20197;-69
2022/11/22 01:56:10;;;;;;;12.50;11.80;;;;;;;3.17;100.00;92234.72;5115578;28;20346;-69
2022/11/22 01:58:38;;;;;;;10.90;10.30;;;;;;;3.25;100.00;92236.84;5114875;28;20193;-69
2022/11/22 02:01:04;;;;;;;11.40;10.80;;;;;;;3.19;100.00;92222.34;5126309;27;20244;-69
2022/11/22 02:03:32;;;;;;;12.10;11.50;;;;;;;3.13;100.00;92235.44;5117190;28;20195;-69
2022/11/22 02:05:58;;;;;;;12.40;11.60;;;;;;;3.09;100.00;92248.06;5109692;27;20302;-69
2022/11/22 02:08:29;;;;;;;12.93;12.13;;;;;;;2.99;100.00;92240.19;5103496;28;20180;-69
2022/11/22 02:10:56;;;;;;;11.53;10.67;;;;;;;2.99;100.00;92247.13;5107105;28;20232;-69
2022/11/22 02:13:22;;;;;;;11.33;10.73;;;;;;;3.05;100.00;92243.63;5124821;28;20179;-70
2022/11/22 02:15:50;;;;;;;12.87;12.17;;;;;;;2.92;100.00;92231.09;5113325;28;20249;-69
2022/11/22 02:18:15;;;;;;;11.97;11.27;;;;;;;2.97;100.00;92239.66;5117731;28;20216;-70
2022/11/22 02:20:41;;;;;;;13.13;12.43;;;;;;;2.80;100.00;92226.06;5123207;28;20244;-69
2022/11/22 02:23:12;;;;;;;11.93;11.23;;;;;;;3.06;100.00;92237.44;5126879;28;20205;-69
2022/11/22 02:25:41;;;;;;;12.77;11.97;;;;;;;3.06;100.00;92235.66;5126252;27;20224;-69
2022/11/22 02:28:08;;;;;;;12.23;11.53;;;;;;;3.25;100.00;92238.66;5118666;28;20211;-69
2022/11/22 02:30:35;;;;;;;12.40;11.67;;;;;;;3.20;100.00;92243.78;5119571;28;20236;-69
2022/11/22 02:33:00;;;;;;;12.67;11.97;;;;;;;3.10;100.00;92243.66;5105178;28;20193;-69
2022/11/22 02:35:28;;;;;;;14.00;13.10;;;;;;;3.24;100.00;92242.25;5108328;28;20250;-69
2022/11/22 02:38:00;;;;;;;12.57;11.83;;;;;;;3.26;100.00;92248.75;5110974;28;20176;-69
2022/11/22 02:40:28;;;;;;;12.77;11.97;;;;;;;3.21;100.00;92246.09;5107535;28;20204;-69
2022/11/22 02:43:00;;;;;;;11.67;10.97;;;;;;;3.45;100.00;92236.28;5097896;28;20185;-69
2022/11/22 02:45:26;;;;;;;12.47;11.77;;;;;;;3.39;100.00;92226.16;5115136;28;20218;-69
2022/11/22 02:47:51;;;;;;;12.80;11.90;;;;;;;3.32;100.00;92221.19;5110664;28;20873;-69
2022/11/22 02:50:17;;;;;;;11.57;10.97;;;;;;;3.29;100.00;92229.41;5121837;28;20235;-69
2022/11/22 02:52:42;;;;;;;12.37;11.63;;;;;;;3.22;100.00;92218.53;5091400;28;20189;-69
2022/11/22 02:55:08;;;;;;;11.83;11.13;;;;;;;3.31;100.00;92225.56;5107316;28;20232;-70
2022/11/22 02:57:33;;;;;;;11.03;10.37;;;;;;;3.18;100.00;92223.38;5093917;28;20174;-69
2022/11/22 02:59:58;;;;;;;11.80;11.10;;;;;;;3.02;100.00;92223.44;5107634;28;20281;-69
2022/11/22 03:02:24;;;;;;;12.10;11.30;;;;;;;2.90;100.00;92212.50;5098740;28;20188;-69
2022/11/22 03:04:49;;;;;;;12.60;11.90;;;;;;;2.89;100.00;92211.75;5110237;28;20242;-69
2022/11/22 03:07:16;;;;;;;11.30;10.70;;;;;;;2.77;100.00;92202.59;5102199;28;20192;-69
2022/11/22 03:09:41;;;;;;;11.47;10.87;;;;;;;2.76;100.00;92214.69;5110432;28;20204;-69
2022/11/22 03:12:07;;;;;;;13.00;12.20;;;;;;;2.79;100.00;92219.34;5125873;28;20210;-69
2022/11/22 03:14:32;;;;;;;13.10;12.30;;;;;;;2.92;100.00;92219.00;5130033;28;20184;-70
2022/11/22 03:16:58;;;;;;;11.63;11.00;;;;;;;2.99;100.00;92216.19;5127602;27;20263;-69
2022/11/22 03:19:23;;;;;;;13.10;12.30;;;;;;;2.92;100.00;92215.63;5115483;28;20176;-69
2022/11/22 03:21:49;;;;;;;13.33;12.27;;;;;;;3.06;100.00;92225.34;5123471;28;20222;-69
2022/11/22 03:24:15;;;;;;;13.33;12.33;;;;;;;3.10;100.00;92225.59;5129122;28;20167;-69
2022/11/22 03:26:45;;;;;;;11.50;10.87;;;;;;;3.11;100.00;92219.44;5119591;28;20654;-70
2022/11/22 03:29:11;;;;;;;12.60;11.90;;;;;;;3.24;100.00;92224.19;5130109;28;20215;-69
2022/11/22 03:31:36;;;;;;;12.37;11.77;;;;;;;3.11;100.00;92216.88;5118964;28;20216;-69
2022/11/22 03:34:02;;;;;;;12.10;11.50;;;;;;;3.07;100.00;92215.78;5124318;28;20223;-68
2022/11/22 03:36:27;;;;;;;12.00;11.30;;;;;;;2.93;100.00;92189.59;5118991;28;20239;-70
2022/11/22 03:38:52;;;;;;;12.00;11.40;;;;;;;2.92;100.00;92208.69;5132798;27;20176;-69
2022/11/22 03:41:18;;;;;;;11.57;10.97;;;;;;;2.87;100.00;92192.38;5113295;28;20698;-69
2022/11/22 03:43:43;;;;;;;11.70;11.10;;;;;;;2.92;100.00;92208.69;5114045;28;20266;-69
2022/11/22 03:46:14;;;;;;;11.80;11.23;;;;;;;2.78;100.00;92212.66;5099000;28;20255;-70
2022/11/22 03:48:40;;;;;;;12.23;11.50;;;;;;;2.84;100.00;92208.31;5098588;28;20211;-70
2022/11/22 03:51:05;;;;;;;12.37;11.67;;;;;;;2.82;100.00;92218.88;5099368;28;20225;-70
2022/11/22 03:53:31;;;;;;;11.90;11.20;;;;;;;2.67;100.00;92215.34;5098895;28;20184;-70
2022/11/22 03:55:57;;;;;;;11.40;10.90;;;;;;;2.70;100.00;92217.44;5099327;28;20229;-70
2022/11/22 03:58:22;;;;;;;11.87;11.27;;;;;;;2.66;100.00;92224.09;5092639;28;20241;-70
2022/11/22 04:00:47;;;;;;;12.37;11.77;;;;;;;2.52;100.00;92225.47;5092223;28;20216;-68
2022/11/22 04:03:13;;;;;;;11.63;11.03;;;;;;;2.56;100.00;92216.25;5091800;28;20198;-70
2022/11/22 04:05:38;;;;;;;11.70;11.10;;;;;;;2.42;100.00;92225.34;5101870;28;20219;-70
2022/11/22 04:08:03;;;;;;;12.03;11.23;;;;;;;2.53;100.00;92211.56;5107831;28;20172;-70
2022/11/22 04:10:29;;;;;;;11.43;10.83;;;;;;;2.54;100.00;92244.03;5122994;27;20238;-69
2022/11/22 04:12:58;;;;;;;10.87;10.37;;;;;;;2.53;100.00;92252.78;5112650;28;20736;-69
2022/11/22 04:15:25;;;;;;;10.90;10.30;;;;;;;2.39;100.00;92239.47;5104543;28;20232;-69
2022/11/22 04:17:50;;;;;;;10.53;9.90;;;;;;;2.39;100.00;92236.13;5097158;28;20189;-70
2022/11/22 04:23:13;;;;;;;15.27;14.07;;;;;;;2.11;100.00;92252.50;5093502;28;20203;-70
2022/11/22 04:25:41;;;;;;;16.10;15.00;;;;;;;2.23;100.00;92260.09;5118551;28;20235;-69
2022/11/22 04:28:08;;;;;;;13.37;12.60;;;;;;;2.22;100.00;92256.75;5130969;28;20206;-69
2022/11/22 04:33:20;;;;;;;12.40;11.70;;;;;;;2.14;100.00;92251.22;5085798;28;20192;-70
2022/11/22 04:35:46;;;;;;;11.17;10.47;;;;;;;2.10;100.00;92263.78;5111996;28;20261;-69
2022/11/22 04:38:12;;;;;;;11.57;11.00;;;;;;;2.06;100.00;92252.41;5123640;28;20668;-70
2022/11/22 04:40:38;;;;;;;11.03;10.53;;;;;;;2.19;100.00;92269.31;5112199;28;20254;-69
2022/11/22 04:45:49;;;;;;;11.63;11.03;;;;;;;2.10;100.00;92275.88;5101843;28;20268;-64
2022/11/22 04:48:15;;;;;;;11.50;10.97;;;;;;;2.00;100.00;92265.44;5099766;28;20197;-66
2022/11/22 04:53:26;;;;;;;12.67;12.00;;;;;;;1.93;100.00;92281.03;5094629;28;20243;-67
2022/11/22 04:55:52;;;;;;;13.03;12.30;;;;;;;2.10;100.00;92276.66;5104359;28;20224;-65
2022/11/22 04:58:17;;;;;;;14.77;13.57;;;;;;;1.85;100.00;92265.22;5116100;28;20192;-66
2022/11/22 05:00:43;;;;;;;11.87;11.17;;;;;;;2.01;100.00;92285.03;5109060;28;20220;-66
2022/11/22 05:03:09;;;;;;;21.73;16.83;;;;;;;1.78;100.00;92262.78;5111497;28;20204;-68
2022/11/22 05:05:41;;;;;;;15.27;13.67;;;;;;;2.01;100.00;92295.31;5116771;28;20227;-66
2022/11/22 05:08:07;;;;;;;12.57;11.73;;;;;;;1.83;100.00;92259.50;5090629;28;20219;-67
2022/11/22 05:13:18;;;;;;;13.17;12.00;;;;;;;1.91;100.00;92261.69;5093194;28;20192;-68
2022/11/22 05:15:43;;;;;;;14.53;13.13;;;;;;;1.91;100.00;92274.56;5094000;28;20244;-69
2022/11/22 05:18:08;;;;;;;21.93;18.73;;;;;;;1.91;100.00;92279.72;5094417;28;20203;-69
2022/11/22 05:20:34;;;;;;;15.80;14.30;;;;;;;1.84;100.00;92279.09;5092871;28;20291;-68
2022/11/22 05:25:44;;;;;;;13.57;12.50;;;;;;;1.81;100.00;92287.25;5106817;28;20719;-69
2022/11/22 05:28:09;;;;;;;15.13;13.90;;;;;;;1.85;100.00;92290.94;5119685;28;20289;-69
2022/11/22 05:30:37;;;;;;;15.17;14.07;;;;;;;1.88;100.00;92291.28;5120256;28;20223;-65
2022/11/22 05:33:03;;;;;;;15.30;14.20;;;;;;;1.86;100.00;92293.28;5116772;28;20247;-70
2022/11/22 05:35:28;;;;;;;14.57;13.40;;;;;;;2.06;100.00;92285.09;5106207;28;20250;-70
2022/11/22 05:37:55;;;;;;;18.10;16.43;;;;;;;1.88;100.00;92270.69;5089620;28;20238;-71
2022/11/22 05:40:21;;;;;;;16.07;14.77;;;;;;;2.08;100.00;92286.44;5091130;28;20207;-71
2022/11/22 05:42:46;;;;;;;25.23;21.63;;;;;;;2.05;100.00;92280.97;5093385;28;20185;-70
2022/11/22 05:45:12;;;;;;;18.77;17.03;;;;;;;1.79;100.00;92255.84;5093207;27;20219;-71
2022/11/22 05:47:37;;;;;;;13.33;12.53;;;;;;;1.98;100.00;92288.84;5097341;28;20197;-72
2022/11/22 05:50:03;;;;;;;14.67;13.60;;;;;;;2.02;100.00;92287.38;5096650;28;20212;-71
2022/11/22 05:52:29;;;;;;;13.60;12.77;;;;;;;1.97;100.00;92289.06;5097260;28;20227;-72
2022/11/22 05:54:54;;;;;;;16.27;14.67;;;;;;;2.18;100.00;92286.56;5094820;28;20217;-73
2022/11/22 05:57:19;;;;;;;12.63;11.40;;;;;;;2.20;100.00;92284.53;5093126;28;20191;-72
2022/11/22 05:59:45;;;;;;;14.07;13.07;;;;;;;2.03;100.00;92288.13;5097897;28;20253;-72
2022/11/22 06:02:10;;;;;;;14.23;13.30;;;;;;;2.10;100.00;92278.47;5091073;28;20203;-72
2022/11/22 06:04:36;;;;;;;13.57;12.67;;;;;;;2.02;100.00;92287.38;5084972;28;20219;-68
2022/11/22 06:07:01;;;;;;;13.93;13.13;;;;;;;2.19;100.00;92298.44;5112438;28;20184;-68
2022/11/22 06:09:26;;;;;;;12.63;11.90;;;;;;;2.35;100.00;92299.44;5109898;28;20187;-69
2022/11/22 06:11:52;;;;;;;11.20;10.60;;;;;;;2.31;100.00;92301.69;5109477;28;20407;-67
2022/11/22 06:14:17;;;;;;;12.40;11.70;;;;;;;2.25;100.00;92279.47;5109670;28;20206;-68
2022/11/22 06:16:43;;;;;;;12.53;11.67;;;;;;;2.22;100.00;92274.00;5109397;28;20216;-68
2022/11/22 06:19:08;;;;;;;12.43;11.73;;;;;;;2.30;100.00;92305.28;5109559;28;20311;-68
2022/11/22 06:21:33;;;;;;;12.03;11.33;;;;;;;2.38;100.00;92289.41;5109647;28;20284;-68
2022/11/22 06:23:59;;;;;;;12.60;11.70;;;;;;;2.50;100.00;92297.84;5109405;28;20187;-68
2022/11/22 06:26:25;;;;;;;14.90;13.80;;;;;;;2.57;100.00;92301.00;5108631;28;20245;-68
2022/11/22 06:28:51;;;;;;;17.83;16.13;;;;;;;2.55;100.00;92291.97;5107959;28;20178;-67
2022/11/22 06:31:24;;;;;;;17.57;16.03;;;;;;;2.39;100.00;92252.38;5119079;28;20224;-69
2022/11/22 06:33:51;;;;;;;27.47;24.67;;;;;;;2.66;100.00;92283.38;5104959;28;20306;-67
2022/11/22 06:36:20;;;;;;;17.03;15.33;;;;;;;2.90;100.00;92300.94;5107764;28;20224;-65
2022/11/22 06:38:45;;;;;;;19.63;17.63;;;;;;;2.93;100.00;92300.47;5109133;28;20176;-64
2022/11/22 06:41:17;;;;;;;46.73;30.77;;;;;;;3.00;100.00;92290.72;5107216;28;20227;-65
2022/11/22 06:43:44;;;;;;;45.20;28.80;;;;;;;3.16;100.00;92310.53;5106670;28;20188;-66
2022/11/22 06:46:10;;;;;;;23.97;18.63;;;;;;;3.15;100.00;92308.19;5100379;28;21073;-65
2022/11/22 06:48:37;;;;;;;23.97;21.43;;;;;;;3.27;100.00;92303.66;5105069;28;20181;-65
2022/11/22 06:51:05;;;;;;;16.90;15.37;;;;;;;3.30;100.00;92313.50;5105467;28;20212;-65
2022/11/22 06:53:33;;;;;;;17.27;15.90;;;;;;;3.27;100.00;92313.97;5105378;28;20252;-65
2022/11/22 06:56:19;;;;;;;14.87;13.77;;;;;;;3.28;100.00;92303.41;5100228;28;20236;-65
2022/11/22 06:58:46;;;;;;;21.70;20.23;;;;;;;3.29;100.00;92314.53;5104938;28;20217;-66
2022/11/22 07:01:14;;;;;;;17.93;16.47;;;;;;;3.46;100.00;92324.75;5108480;28;20223;-65
2022/11/22 07:03:40;;;;;;;18.67;17.03;;;;;;;3.47;100.00;92321.94;5113333;28;20244;-65
2022/11/22 07:06:07;;;;;;;19.13;17.13;;;;;;;3.28;100.00;92312.97;5112755;27;20291;-65
2022/11/22 07:08:33;;;;;;;17.90;16.17;;;;;;;3.45;100.00;92293.03;5108655;28;20184;-66
2022/11/22 07:11:08;;;;;;;17.87;16.37;;;;;;;3.57;100.00;92316.91;5096919;28;20250;-66
2022/11/22 07:13:34;;;;;;;17.23;15.90;;;;;;;3.41;100.00;92312.59;5105131;28;20188;-65
2022/11/22 07:16:01;;;;;;;16.83;15.23;;;;;;;3.65;100.00;92308.72;5117876;28;20223;-64
2022/11/22 07:18:27;;;;;;;15.97;14.53;;;;;;;3.57;100.00;92291.09;5127929;28;20187;-66
2022/11/22 07:20:58;;;;;;;18.03;16.53;;;;;;;3.66;100.00;92299.19;5118621;27;20223;-65
2022/11/22 07:23:23;;;;;;;20.27;18.33;;;;;;;3.87;100.00;92301.69;5097584;28;20286;-65
2022/11/22 07:25:49;;;;;;;15.77;14.57;;;;;;;3.90;100.00;92308.94;5101363;28;20227;-66
2022/11/22 07:28:15;;;;;;;16.97;15.47;;;;;;;4.14;100.00;92312.75;5113638;28;20177;-66
2022/11/22 07:30:41;;;;;;;15.77;14.43;;;;;;;4.04;100.00;92317.06;5113402;28;20232;-66
2022/11/22 07:33:07;;;;;;;18.13;16.43;;;;;;;4.23;100.00;92308.72;5103468;28;20188;-65
2022/11/22 07:35:33;;;;;;;16.13;14.93;;;;;;;4.30;100.00;92308.47;5096984;28;20688;-66
2022/11/22 07:37:58;;;;;;;15.97;14.87;;;;;;;4.23;100.00;92303.53;5092186;28;20177;-65
2022/11/22 07:40:24;;;;;;;13.63;12.53;;;;;;;4.35;98.73;92286.06;5087737;28;20220;-65
2022/11/22 07:42:49;;;;;;;14.97;13.87;;;;;;;4.29;98.47;92292.22;5115402;28;20192;-64
2022/11/22 07:45:14;;;;;;;12.00;11.20;;;;;;;4.31;98.17;92277.22;5106186;28;20811;-65
2022/11/22 07:47:40;;;;;;;13.07;12.27;;;;;;;3.96;99.69;92253.75;5105958;28;20219;-66
2022/11/22 07:50:06;;;;;;;12.47;11.70;;;;;;;4.12;100.00;92277.88;5098408;28;20227;-64
2022/11/22 07:52:31;;;;;;;12.67;11.87;;;;;;;4.27;100.00;92289.09;5111200;28;20210;-66
2022/11/22 07:54:57;;;;;;;13.33;12.53;;;;;;;4.49;100.00;92297.50;5105696;28;20236;-66
2022/11/22 07:57:22;;;;;;;12.40;11.60;;;;;;;4.70;99.39;92301.75;5109451;28;20183;-66
2022/11/22 07:59:47;;;;;;;12.73;11.90;;;;;;;4.88;99.68;92298.78;5113727;27;20189;-65
2022/11/22 08:02:13;;;;;;;11.93;11.23;;;;;;;4.96;96.66;92290.50;5098342;28;20184;-68
2022/11/22 08:04:38;;;;;;;12.80;11.93;;;;;;;5.11;97.08;92297.56;5091991;28;20269;-66
2022/11/22 08:07:04;;;;;;;12.90;12.03;;;;;;;5.27;97.24;92306.97;5103869;28;20181;-66
2022/11/22 08:09:29;;;;;;;13.67;12.77;;;;;;;5.42;96.64;92301.03;5114329;28;20184;-65
2022/11/22 08:11:55;;;;;;;12.63;11.83;;;;;;;5.43;96.97;92302.63;5102148;27;20232;-65
2022/11/22 08:14:20;;;;;;;14.87;14.07;;;;;;;5.33;96.48;92285.25;5091849;28;20284;-65
2022/11/22 08:16:46;;;;;;;11.90;11.00;;;;;;;5.35;92.68;92297.94;5105688;28;20224;-66
2022/11/22 08:19:16;;;;;;;12.60;11.80;;;;;;;5.11;93.52;92279.47;5112996;28;20191;-66
2022/11/22 08:21:42;;;;;;;12.97;12.17;;;;;;;5.14;95.19;92289.31;5093297;28;20291;-67
2022/11/22 08:24:07;;;;;;;14.20;13.13;;;;;;;5.22;96.31;92290.63;5091498;28;20192;-66
2022/11/22 08:26:33;;;;;;;11.57;10.63;;;;;;;5.32;95.97;92293.25;5107052;28;20231;-66
2022/11/22 08:28:59;;;;;;;12.60;11.90;;;;;;;5.45;95.65;92288.38;5105319;28;20196;-67
2022/11/22 08:31:25;;;;;;;12.23;11.40;;;;;;;5.74;92.86;92296.47;5107660;28;20216;-66
2022/11/22 08:33:54;;;;;;;12.33;11.43;;;;;;;6.06;89.34;92294.47;5108774;28;20217;-67
2022/11/22 08:36:19;;;;;;;13.87;12.87;;;;;;;6.04;90.81;92276.59;5085044;28;20233;-67
2022/11/22 08:38:45;;;;;;;12.27;11.57;;;;;;;6.42;88.25;92283.06;5091911;28;20276;-67
2022/11/22 08:41:11;;;;;;;13.23;12.33;;;;;;;6.51;85.34;92274.50;5099950;28;20231;-66
2022/11/22 08:43:36;;;;;;;13.87;12.87;;;;;;;6.30;85.24;92248.84;5108802;28;20196;-66
2022/11/22 08:46:02;;;;;;;15.20;13.87;;;;;;;6.45;87.08;92261.78;5095008;28;21792;-67
2022/11/22 08:48:30;;;;;;;16.57;15.27;;;;;;;6.42;87.48;92252.72;5100800;28;20186;-66
2022/11/22 08:50:57;;;;;;;15.53;14.30;;;;;;;6.31;88.91;92253.78;5105552;28;20223;-67
2022/11/22 08:53:24;;;;;;;19.53;16.10;;;;;;;6.40;90.98;92259.97;5115427;28;20176;-67
2022/11/22 08:55:50;;;;;;;15.77;14.57;;;;;;;6.57;88.50;92248.56;5093869;27;20228;-68
2022/11/22 08:58:16;;;;;;;14.80;13.57;;;;;;;6.50;88.24;92228.88;5125279;27;20200;-68
2022/11/22 09:00:42;;;;;;;15.23;13.70;;;;;;;6.47;89.12;92247.50;5105553;28;20227;-68
2022/11/22 09:03:07;;;;;;;15.87;14.60;;;;;;;6.45;89.57;92256.59;5123237;28;20208;-68
2022/11/22 09:05:32;;;;;;;16.30;15.07;;;;;;;6.49;89.52;92247.25;5107638;28;20219;-67
2022/11/22 09:07:58;;;;;;;15.23;14.13;;;;;;;6.28;91.14;92248.31;5115819;28;20228;-68
2022/11/22 09:10:24;;;;;;;17.10;15.57;;;;;;;6.21;91.52;92242.66;5102594;27;20475;-67
2022/11/22 09:12:50;;;;;;;17.73;16.23;;;;;;;6.26;91.70;92227.06;5103489;28;20224;-66
2022/11/22 09:15:15;;;;;;;16.47;15.20;;;;;;;6.53;89.31;92230.16;5105569;28;20253;-66
2022/11/22 09:17:42;;;;;;;17.60;16.10;;;;;;;6.57;89.02;92248.56;5094195;28;20189;-68
2022/11/22 09:20:08;;;;;;;17.90;16.00;;;;;;;6.55;88.35;92243.63;5099810;28;20226;-67
2022/11/22 09:22:34;;;;;;;17.70;16.20;;;;;;;6.40;88.39;92241.03;5119285;28;20272;-69
2022/11/22 09:24:59;;;;;;;16.43;14.83;;;;;;;6.23;89.55;92233.56;5104579;28;20270;-67
2022/11/22 09:27:25;;;;;;;17.67;15.40;;;;;;;5.78;92.23;92168.00;5115339;28;20230;-67
2022/11/22 09:29:51;;;;;;;17.60;16.00;;;;;;;6.20;89.91;92241.88;5109955;28;20180;-67
2022/11/22 09:32:16;;;;;;;17.20;15.47;;;;;;;6.35;89.43;92231.47;5097576;28;20244;-70
2022/11/22 09:34:41;;;;;;;17.53;15.80;;;;;;;6.38;90.19;92232.78;5100798;28;20229;-68
2022/11/22 09:37:07;;;;;;;17.30;15.80;;;;;;;6.63;88.63;92222.31;5095444;28;20213;-67
2022/11/22 09:39:32;;;;;;;16.73;15.03;;;;;;;6.40;88.38;92215.91;5089398;28;20196;-67
2022/11/22 09:42:09;;;;;;;16.83;15.53;;;;;;;6.66;90.43;92216.63;5092137;28;20208;-67
2022/11/22 09:45:02;;;;;;;16.20;14.60;;;;;;;6.90;89.41;92222.78;5078744;28;20199;-66
2022/11/22 09:47:34;;;;;;;16.73;15.33;;;;;;;6.96;85.96;92232.09;5099593;28;20184;-66
2022/11/22 09:50:32;;;;;;;16.40;14.93;;;;;;;6.86;85.98;92226.94;5105776;28;20260;-67
2022/11/22 09:52:58;;;;;;;13.90;12.70;;;;;;;6.93;85.28;92219.66;5093398;28;20188;-67
2022/11/22 09:55:56;;;;;;;13.20;12.23;;;;;;;6.72;81.58;92215.59;5089925;28;20251;-67
2022/11/22 09:58:36;;;;;;;13.07;12.17;;;;;;;6.66;84.06;92219.22;5100124;28;20244;-66
2022/11/22 10:01:26;;;;;;;11.47;10.67;;;;;;;6.88;82.58;92208.53;5107123;28;20231;-68
2022/11/22 10:04:16;;;;;;;11.80;11.20;;;;;;;6.91;81.34;92211.34;5111558;28;20175;-66
2022/11/22 10:06:48;;;;;;;12.57;11.77;;;;;;;7.03;82.32;92213.63;5101234;28;20250;-68
2022/11/22 10:09:26;;;;;;;13.30;12.33;;;;;;;7.25;80.91;92208.88;5114573;28;20191;-68
2022/11/22 10:12:10;;;;;;;14.63;13.43;;;;;;;6.88;82.28;92164.41;5088616;28;20323;-67
2022/11/22 10:15:01;;;;;;;14.73;13.63;;;;;;;7.26;82.75;92180.03;5098892;28;20268;-68
2022/11/22 10:17:29;;;;;;;13.77;12.87;;;;;;;7.31;81.23;92187.03;5085668;28;20185;-69
2022/11/22 10:20:13;;;;;;;13.30;12.20;;;;;;;7.12;81.83;92189.47;5094770;28;20229;-70
2022/11/22 10:22:39;;;;;;;14.63;13.53;;;;;;;7.08;83.35;92172.09;5098509;28;20189;-67
2022/11/22 10:25:16;;;;;;;15.83;14.43;;;;;;;7.24;83.48;92170.94;5097780;28;20253;-68
2022/11/22 10:27:43;;;;;;;16.00;14.53;;;;;;;7.05;83.81;92170.81;5104623;28;20188;-70
2022/11/22 10:30:19;;;;;;;16.07;14.77;;;;;;;6.62;87.25;92170.72;5101860;28;20212;-68
2022/11/22 10:33:03;;;;;;;15.70;14.17;;;;;;;6.93;87.62;92170.34;5096075;28;20203;-69
2022/11/22 10:35:37;;;;;;;15.80;14.50;;;;;;;7.46;86.00;92163.56;5112115;28;20238;-69
2022/11/22 10:38:22;;;;;;;14.80;13.47;;;;;;;7.36;83.02;92169.59;5097133;28;20187;-69
2022/11/22 10:41:06;;;;;;;15.80;14.33;;;;;;;7.34;84.41;92163.91;5099222;28;20217;-70
2022/11/22 10:43:46;;;;;;;15.90;14.60;;;;;;;7.36;83.96;92159.19;5108014;28;20179;-69
2022/11/22 10:46:40;;;;;;;14.90;13.73;;;;;;;7.07;84.08;92150.56;5090671;28;20233;-69
2022/11/22 10:49:32;;;;;;;15.80;14.40;;;;;;;6.84;86.52;92142.63;5080273;28;20201;-70
2022/11/22 10:52:12;;;;;;;15.17;13.77;;;;;;;7.00;87.68;92118.16;5108813;28;20230;-70
2022/11/22 10:55:02;;;;;;;15.37;14.20;;;;;;;7.08;87.45;92128.75;5100319;28;21219;-69
2022/11/22 10:57:30;;;;;;;15.90;14.47;;;;;;;7.09;86.78;92137.31;5111929;28;20183;-69
2022/11/22 11:00:17;;;;;;;17.07;15.57;;;;;;;6.89;87.87;92143.41;5109178;27;20235;-70
2022/11/22 11:02:45;;;;;;;27.90;15.03;;;;;;;6.85;88.67;92150.13;5089071;28;20188;-69
2022/11/22 11:05:16;;;;;;;16.80;15.50;;;;;;;6.95;88.51;92138.94;5103533;28;20250;-71
2022/11/22 11:07:46;;;;;;;17.63;16.07;;;;;;;6.91;89.50;92128.31;5110542;28;20219;-70
2022/11/22 11:10:18;;;;;;;17.63;16.07;;;;;;;6.85;89.50;92108.63;5115635;27;20306;-70
2022/11/22 11:12:49;;;;;;;16.93;15.43;;;;;;;7.01;90.75;92125.69;5100363;28;20184;-68
2022/11/22 11:15:33;;;;;;;16.57;15.07;;;;;;;7.25;89.64;92134.38;5093103;28;20239;-66
2022/11/22 11:18:01;;;;;;;15.73;14.53;;;;;;;7.30;89.27;92123.94;5111043;28;20769;-66
2022/11/22 11:20:32;;;;;;;16.43;14.77;;;;;;;7.24;89.34;92125.00;5105985;27;20214;-66
2022/11/22 11:22:57;;;;;;;16.23;14.90;;;;;;;7.32;88.48;92145.22;5085988;28;20197;-67
2022/11/22 11:25:33;;;;;;;15.97;14.50;;;;;;;7.37;88.46;92139.22;5101988;28;20223;-67
2022/11/22 11:28:09;;;;;;;16.20;14.80;;;;;;;7.29;86.43;92137.97;5112514;28;20187;-65
2022/11/22 11:30:45;;;;;;;15.70;14.20;;;;;;;7.28;86.43;92112.28;5105936;28;20228;-66
2022/11/22 11:33:22;;;;;;;17.20;15.57;;;;;;;7.06;90.79;92102.31;5087781;28;20192;-66
2022/11/22 11:35:53;;;;;;;16.50;14.93;;;;;;;7.24;88.41;92101.66;5096099;28;20244;-66
2022/11/22 11:38:27;;;;;;;17.63;16.03;;;;;;;7.34;88.21;92104.19;5099239;28;20215;-68
2022/11/22 11:40:52;;;;;;;17.43;15.90;;;;;;;7.31;87.83;92076.19;5098387;28;20224;-67